メインページ
METAR-TAF:

METAR-TAF

空港 :

パルマ・デ・マリョルカ, スペイン

パルマ・デ・マヨルカ空港

緯度: 39-33N, 経度: 002-44E, 海抜: 4m

現時点の気象観測

当レポートは13分前の02:00(UTC)に作成
西/北西の風 12kt、西から北/北西の間で変化する
気温 18°C
湿度 56%
気圧 1023 hPa
視程10km以上
1,500メートル以下は雲なし、積乱雲なし

METAR: LEPA 220200Z 30012KT 260V330 CAVOK 18/09 Q1023 NOSIG

時間: 03:13 (02:13 UTC)

予報

当レポートは3時間13分前の23:00(UTC)に作成
予報は22日の 00時(UTC)から 22日の 24時(UTC)まで有効
西/北西の風 9kt
視程10km以上
高度3000ftの雲はほとんどない
確率 40% :
22日の 00時(UTC)から 22日の 05時(UTC)まで一時的に
北西の風 18kt、最大30ktの突風を伴う
22日の 12時(UTC)から 22日の 14時(UTC)まで徐々に
西/南西の風 9kt

TAF: LEPA 212300Z 2200/2224 30009KT 9999 FEW030 TX20/2213Z TN13/2207Z PROB40 TEMPO 2200/2205 31018G30KT BECMG 2212/2214 24009KT

4,000以上の空港の気象観測と天気予報(METAR報とTAF報)

利用可能な観測所は地図上に黄色い丸と赤い丸で示す。

丸の上にカーソルを重ねると観測所名を参照できる。

次にクリックすると気象観測と天気予報を参照できる。

マップの切り替え:黒色「×」印の緑ボタンをクリックして拡大、「-」印の緑ボタンをクリックして縮小、緑色の三角印をクリックして隣りの地図に切り替え


METAR-TAF: